createdAt,value
2023-02-19T00:00:04.483Z,10.20
2023-02-19T00:03:02.476Z,10.20
2023-02-19T00:05:30.591Z,10.10
2023-02-19T00:07:58.365Z,10.10
2023-02-19T00:10:26.375Z,10.10
2023-02-19T00:12:55.594Z,10.10
2023-02-19T00:15:23.631Z,10.10
2023-02-19T00:17:51.695Z,10.00
2023-02-19T00:20:19.683Z,10.00
2023-02-19T00:22:47.368Z,10.00
2023-02-19T00:25:15.491Z,10.00
2023-02-19T00:27:43.339Z,10.00
2023-02-19T00:30:11.966Z,9.90
2023-02-19T00:32:39.815Z,9.90
2023-02-19T00:35:12.149Z,9.90
2023-02-19T00:37:39.899Z,9.90
2023-02-19T00:40:08.173Z,9.90
2023-02-19T00:42:35.909Z,9.90
2023-02-19T00:45:04.375Z,10.00
2023-02-19T00:47:34.077Z,10.00
2023-02-19T00:50:02.290Z,10.00
2023-02-19T00:52:30.247Z,10.00
2023-02-19T00:54:58.199Z,10.00
2023-02-19T00:57:25.954Z,10.00
2023-02-19T00:59:53.955Z,10.00
2023-02-19T01:02:21.725Z,9.90
2023-02-19T01:04:51.438Z,9.90
2023-02-19T01:07:19.565Z,9.90
2023-02-19T01:09:47.608Z,9.90
2023-02-19T01:12:15.371Z,9.80
2023-02-19T01:14:43.410Z,9.80
2023-02-19T01:17:11.213Z,9.80
2023-02-19T01:19:39.511Z,9.80
2023-02-19T01:22:07.196Z,9.80
2023-02-19T01:24:35.740Z,9.70
2023-02-19T01:27:03.716Z,9.70
2023-02-19T01:29:31.669Z,9.70
2023-02-19T01:31:59.510Z,9.70
2023-02-19T01:34:30.208Z,9.70
2023-02-19T01:36:57.872Z,9.80
2023-02-19T01:39:25.969Z,9.80
2023-02-19T01:41:54.126Z,9.80
2023-02-19T01:44:22.048Z,9.90
2023-02-19T01:46:51.605Z,9.90
2023-02-19T01:49:24.772Z,9.90
2023-02-19T01:52:05.434Z,10.00
2023-02-19T01:54:38.320Z,10.00
2023-02-19T01:57:11.307Z,10.00
2023-02-19T01:59:40.147Z,10.00
2023-02-19T02:02:08.367Z,10.00
2023-02-19T02:04:36.430Z,10.00
2023-02-19T02:07:28.929Z,10.00
2023-02-19T02:10:15.730Z,10.00
2023-02-19T02:12:43.449Z,9.90
2023-02-19T02:15:12.413Z,9.90
2023-02-19T02:17:56.919Z,9.80
2023-02-19T02:20:54.732Z,9.80
2023-02-19T02:23:49.292Z,9.70
2023-02-19T02:26:42.369Z,9.70
2023-02-19T02:29:37.001Z,9.60
2023-02-19T02:32:23.853Z,9.50
2023-02-19T02:35:07.583Z,9.50
2023-02-19T02:37:39.561Z,9.50
2023-02-19T02:40:10.541Z,9.40
2023-02-19T02:42:40.348Z,9.40
2023-02-19T02:45:37.230Z,9.40
2023-02-19T02:48:30.026Z,9.30
2023-02-19T02:51:21.111Z,9.30
2023-02-19T02:54:26.067Z,9.30
2023-02-19T02:56:57.024Z,9.20
2023-02-19T02:59:32.051Z,9.20
2023-02-19T03:02:11.174Z,9.20
2023-02-19T03:04:59.379Z,9.10
2023-02-19T03:07:33.841Z,9.10
2023-02-19T03:10:05.190Z,9.10
2023-02-19T03:12:52.694Z,9.10
2023-02-19T03:15:42.125Z,9.10
2023-02-19T03:18:31.092Z,9.10
2023-02-19T03:21:02.472Z,9.10
2023-02-19T03:23:51.767Z,9.10
2023-02-19T03:26:21.045Z,9.10
2023-02-19T03:29:12.718Z,9.10
2023-02-19T03:31:46.236Z,9.20
2023-02-19T03:34:22.056Z,9.20
2023-02-19T03:37:12.322Z,9.20
2023-02-19T03:39:44.493Z,9.20
2023-02-19T03:42:25.729Z,9.20
2023-02-19T03:45:08.098Z,9.20
2023-02-19T03:47:55.803Z,9.20
2023-02-19T03:50:35.398Z,9.20
2023-02-19T03:53:24.976Z,9.20
2023-02-19T03:56:10.945Z,9.20
2023-02-19T03:58:56.906Z,9.20
2023-02-19T04:01:36.627Z,9.10
2023-02-19T04:04:22.322Z,9.10
2023-02-19T04:06:54.748Z,9.10
2023-02-19T04:09:27.768Z,9.00
2023-02-19T04:12:03.565Z,9.00
2023-02-19T04:14:51.941Z,9.00
2023-02-19T04:17:34.994Z,8.90
2023-02-19T04:20:08.845Z,8.90
2023-02-19T04:22:39.208Z,8.90
2023-02-19T04:25:10.015Z,8.90
2023-02-19T04:27:39.086Z,8.80
2023-02-19T04:30:11.097Z,8.90
2023-02-19T04:32:39.090Z,8.90
2023-02-19T04:35:07.222Z,8.90
2023-02-19T04:37:35.337Z,9.00
2023-02-19T04:40:03.792Z,9.00
2023-02-19T04:42:31.536Z,9.10
2023-02-19T04:44:59.559Z,9.10
2023-02-19T04:47:27.256Z,9.10
2023-02-19T04:49:55.185Z,9.20
2023-02-19T04:52:22.905Z,9.20
2023-02-19T04:54:50.876Z,9.20
2023-02-19T04:57:18.638Z,9.20
2023-02-19T04:59:47.185Z,9.30
2023-02-19T05:02:17.581Z,9.30
2023-02-19T05:04:45.547Z,9.30
2023-02-19T05:07:13.354Z,9.30
2023-02-19T05:09:41.477Z,9.40
2023-02-19T05:12:09.231Z,9.40
2023-02-19T05:14:37.019Z,9.40
2023-02-19T05:17:05.156Z,9.40
2023-02-19T05:19:33.011Z,9.40
2023-02-19T05:22:01.123Z,9.40
2023-02-19T05:24:29.923Z,9.40
2023-02-19T05:26:57.909Z,9.50
2023-02-19T05:29:25.652Z,9.50
2023-02-19T05:31:53.856Z,9.50
2023-02-19T05:34:21.532Z,9.50
2023-02-19T05:36:49.609Z,9.40
2023-02-19T05:39:17.367Z,9.40
2023-02-19T05:41:45.462Z,9.40
2023-02-19T05:44:14.127Z,9.30
2023-02-19T05:46:42.133Z,9.30
2023-02-19T05:49:10.205Z,9.20
2023-02-19T05:51:38.511Z,9.10
2023-02-19T05:54:06.428Z,9.20
2023-02-19T05:56:42.214Z,9.10
2023-02-19T05:59:20.538Z,9.00
2023-02-19T06:01:52.370Z,9.00
2023-02-19T06:04:20.718Z,9.00
2023-02-19T06:06:51.095Z,9.00
2023-02-19T06:09:18.881Z,9.00
2023-02-19T06:11:47.149Z,9.00
2023-02-19T06:14:14.999Z,8.90
2023-02-19T06:16:43.138Z,8.90
2023-02-19T06:19:10.950Z,8.90
2023-02-19T06:21:38.973Z,8.90
2023-02-19T06:24:09.301Z,8.80
2023-02-19T06:26:38.218Z,8.80
2023-02-19T06:29:05.880Z,8.80
2023-02-19T06:31:33.912Z,8.80
2023-02-19T06:34:04.932Z,8.80
2023-02-19T06:36:33.033Z,8.80
2023-02-19T06:39:01.616Z,8.70
2023-02-19T06:41:29.443Z,8.70
2023-02-19T06:44:00.523Z,8.70
2023-02-19T06:47:44.693Z,8.70
2023-02-19T06:50:12.953Z,8.60
2023-02-19T06:52:40.624Z,8.60
2023-02-19T06:55:09.622Z,8.60
2023-02-19T06:57:37.328Z,8.60
2023-02-19T07:00:05.800Z,8.50
2023-02-19T07:02:33.619Z,8.50
2023-02-19T07:05:04.075Z,8.50
2023-02-19T07:07:31.768Z,8.50
2023-02-19T07:10:00.135Z,8.50
2023-02-19T07:12:27.841Z,8.50
2023-02-19T07:14:55.822Z,8.50
2023-02-19T07:17:23.523Z,8.40
2023-02-19T07:19:51.589Z,8.40
2023-02-19T07:22:19.384Z,8.40
2023-02-19T07:24:48.004Z,8.40
2023-02-19T07:27:15.786Z,8.40
2023-02-19T07:29:43.833Z,8.40
2023-02-19T07:32:11.683Z,8.40
2023-02-19T07:34:39.796Z,8.50
2023-02-19T07:37:07.517Z,8.50
2023-02-19T07:39:35.497Z,8.50
2023-02-19T07:42:03.278Z,8.50
2023-02-19T07:44:33.553Z,8.50
2023-02-19T07:47:02.457Z,8.60
2023-02-19T07:49:30.469Z,8.60
2023-02-19T07:51:58.300Z,8.60
2023-02-19T07:54:26.344Z,8.60
2023-02-19T07:56:54.050Z,8.60
2023-02-19T07:59:22.101Z,8.70
2023-02-19T08:02:08.438Z,8.80
2023-02-19T08:04:36.578Z,8.80
2023-02-19T08:07:05.430Z,8.80
2023-02-19T08:09:33.826Z,8.80
2023-02-19T08:12:19.896Z,8.80
2023-02-19T08:14:47.918Z,8.90
2023-02-19T08:17:15.763Z,8.90
2023-02-19T08:19:44.434Z,8.90
2023-02-19T08:22:12.641Z,9.00
2023-02-19T08:24:45.406Z,9.00
2023-02-19T08:27:13.303Z,9.00
2023-02-19T08:29:41.439Z,9.00
2023-02-19T08:32:09.351Z,9.00
2023-02-19T08:34:37.435Z,9.00
2023-02-19T08:37:07.444Z,9.00
2023-02-19T08:39:35.435Z,9.00
2023-02-19T08:42:03.303Z,9.10
2023-02-19T08:44:33.185Z,9.00
2023-02-19T08:47:01.016Z,9.10
2023-02-19T08:49:29.423Z,9.10
2023-02-19T08:51:57.135Z,9.10
2023-02-19T08:54:28.282Z,9.20
2023-02-19T08:56:56.021Z,9.20
2023-02-19T08:59:24.054Z,9.20
2023-02-19T09:01:52.786Z,9.20
2023-02-19T09:04:23.262Z,9.30
2023-02-19T09:06:51.250Z,9.30
2023-02-19T09:09:19.526Z,9.30
2023-02-19T09:11:49.216Z,9.40
2023-02-19T09:14:17.408Z,9.40
2023-02-19T09:16:45.093Z,9.40
2023-02-19T09:19:13.098Z,9.40
2023-02-19T09:21:43.898Z,9.50
2023-02-19T09:24:11.869Z,9.60
2023-02-19T09:26:39.530Z,9.70
2023-02-19T09:29:07.663Z,9.80
2023-02-19T09:31:35.500Z,10.00
2023-02-19T09:34:03.610Z,10.20
2023-02-19T09:36:33.492Z,10.40
2023-02-19T09:39:02.092Z,10.60
2023-02-19T09:41:32.808Z,10.70
2023-02-19T09:44:03.224Z,10.80
2023-02-19T09:46:32.874Z,11.00
2023-02-19T09:49:08.084Z,11.10
2023-02-19T09:51:38.421Z,11.20
2023-02-19T09:54:11.172Z,11.30
2023-02-19T09:56:39.109Z,11.30
2023-02-19T09:59:19.131Z,11.40
2023-02-19T10:01:49.734Z,11.40
2023-02-19T10:04:17.925Z,11.40
2023-02-19T10:06:46.951Z,11.40
2023-02-19T10:09:26.950Z,11.50
2023-02-19T10:11:58.338Z,11.50
2023-02-19T10:14:39.974Z,11.50
2023-02-19T10:17:13.904Z,11.50
2023-02-19T10:19:42.202Z,11.40
2023-02-19T10:22:12.465Z,11.40
2023-02-19T10:24:42.675Z,11.40
2023-02-19T10:27:20.182Z,11.40
2023-02-19T10:29:50.943Z,11.50
2023-02-19T10:32:24.099Z,11.50
2023-02-19T10:35:12.762Z,11.60
2023-02-19T10:37:51.427Z,11.60
2023-02-19T10:40:26.332Z,11.50
2023-02-19T10:42:58.895Z,11.50
2023-02-19T10:45:47.926Z,11.40
2023-02-19T10:48:42.368Z,11.30
2023-02-19T10:51:20.928Z,11.30
2023-02-19T10:53:50.412Z,11.40
2023-02-19T10:56:27.198Z,11.50
2023-02-19T10:59:34.335Z,11.60
2023-02-19T11:02:15.805Z,11.60
2023-02-19T11:05:16.099Z,11.70
2023-02-19T11:08:02.431Z,11.80
2023-02-19T11:10:32.290Z,11.90
2023-02-19T11:13:05.983Z,11.90
2023-02-19T11:15:35.548Z,12.00
2023-02-19T11:18:12.850Z,12.00
2023-02-19T11:20:56.831Z,12.10
2023-02-19T11:23:29.475Z,12.10
2023-02-19T11:26:00.666Z,12.20
2023-02-19T11:28:32.857Z,12.10
2023-02-19T11:31:14.704Z,12.10
2023-02-19T11:34:01.265Z,12.00
2023-02-19T11:36:37.609Z,12.00
2023-02-19T11:39:18.125Z,12.00
2023-02-19T11:41:57.386Z,12.00
2023-02-19T11:44:41.786Z,12.00
2023-02-19T11:47:33.664Z,12.10
2023-02-19T11:50:26.175Z,12.10
2023-02-19T11:53:15.418Z,12.10
2023-02-19T11:55:55.533Z,12.30
2023-02-19T11:59:07.578Z,12.40
2023-02-19T12:01:38.752Z,12.50
2023-02-19T12:04:40.521Z,12.60
2023-02-19T12:07:30.070Z,12.70
2023-02-19T12:10:22.832Z,12.90
2023-02-19T12:13:07.774Z,12.90
2023-02-19T12:16:04.485Z,13.00
2023-02-19T12:18:35.645Z,13.10
2023-02-19T12:21:06.153Z,13.10
2023-02-19T12:24:05.817Z,13.10
2023-02-19T12:26:53.438Z,13.10
2023-02-19T12:29:36.532Z,13.10
2023-02-19T12:32:35.512Z,13.00
2023-02-19T12:35:21.359Z,12.90
2023-02-19T12:38:01.370Z,12.80
2023-02-19T12:40:50.804Z,12.90
2023-02-19T12:43:20.743Z,12.90
2023-02-19T12:46:07.723Z,13.00
2023-02-19T12:49:00.699Z,13.10
2023-02-19T12:51:49.325Z,13.10
2023-02-19T12:54:23.918Z,13.10
2023-02-19T12:57:00.866Z,13.10
2023-02-19T12:59:34.252Z,13.10
2023-02-19T13:02:34.733Z,13.10
2023-02-19T13:05:40.512Z,13.10
2023-02-19T13:08:15.901Z,13.10
2023-02-19T13:10:50.698Z,13.10
2023-02-19T13:13:33.588Z,13.00
2023-02-19T13:16:09.938Z,13.00
2023-02-19T13:18:50.098Z,13.00
2023-02-19T13:21:39.921Z,13.00
2023-02-19T13:24:14.089Z,13.00
2023-02-19T13:27:00.551Z,13.10
2023-02-19T13:29:31.558Z,13.10
2023-02-19T13:32:08.063Z,13.10
2023-02-19T13:35:12.345Z,13.10
2023-02-19T13:37:40.494Z,13.10
2023-02-19T13:40:33.181Z,13.10
2023-02-19T13:43:04.344Z,13.10
2023-02-19T13:45:38.650Z,13.10
2023-02-19T13:48:27.561Z,13.20
2023-02-19T13:51:34.499Z,13.20
2023-02-19T13:54:14.752Z,13.20
2023-02-19T13:56:42.848Z,13.20
2023-02-19T13:59:37.089Z,13.20
2023-02-19T14:02:05.136Z,13.10
2023-02-19T14:04:42.249Z,13.10
2023-02-19T14:07:10.513Z,13.10
2023-02-19T14:09:41.030Z,13.20
2023-02-19T14:12:15.050Z,13.20
2023-02-19T14:14:44.435Z,13.20
2023-02-19T14:17:27.912Z,13.30
2023-02-19T14:19:55.717Z,13.30
2023-02-19T14:23:05.857Z,13.30
2023-02-19T14:25:53.386Z,13.40
2023-02-19T14:28:30.321Z,13.40
2023-02-19T14:31:02.770Z,13.50
2023-02-19T14:33:40.254Z,13.50
2023-02-19T14:36:37.235Z,13.60
2023-02-19T14:39:21.794Z,13.60
2023-02-19T14:41:58.796Z,13.60
2023-02-19T14:44:33.055Z,13.60
2023-02-19T14:47:06.586Z,13.60
2023-02-19T14:50:00.488Z,13.60
2023-02-19T14:52:32.194Z,13.70
2023-02-19T14:55:06.486Z,13.70
2023-02-19T14:57:40.333Z,13.70
2023-02-19T15:00:23.794Z,13.70
2023-02-19T15:02:53.640Z,13.60
2023-02-19T15:05:33.603Z,13.60
2023-02-19T15:08:13.171Z,13.60
2023-02-19T15:10:43.462Z,13.60
2023-02-19T15:13:17.476Z,13.60
2023-02-19T15:15:46.860Z,13.60
2023-02-19T15:18:20.545Z,13.60
2023-02-19T15:20:49.506Z,13.60
2023-02-19T15:23:23.125Z,13.60
2023-02-19T15:25:52.472Z,13.70
2023-02-19T15:28:26.347Z,13.70
2023-02-19T15:30:57.520Z,13.70
2023-02-19T15:33:29.987Z,13.60
2023-02-19T15:36:06.649Z,13.60
2023-02-19T15:38:35.411Z,13.60
2023-02-19T15:41:03.788Z,13.60
2023-02-19T15:43:38.856Z,13.50
2023-02-19T15:46:15.616Z,13.50
2023-02-19T15:48:51.136Z,13.50
2023-02-19T15:51:50.070Z,13.50
2023-02-19T15:54:35.204Z,13.50
2023-02-19T15:57:08.819Z,13.50
2023-02-19T15:59:45.150Z,13.50
2023-02-19T16:02:16.505Z,13.50
2023-02-19T16:04:45.551Z,13.50
2023-02-19T16:07:28.575Z,13.50
2023-02-19T16:10:18.770Z,13.50
2023-02-19T16:13:03.159Z,13.40
2023-02-19T16:15:32.743Z,13.40
2023-02-19T16:18:01.388Z,13.40
2023-02-19T16:20:35.382Z,13.40
2023-02-19T16:23:15.518Z,13.40
2023-02-19T16:25:45.862Z,13.30
2023-02-19T16:28:22.914Z,13.40
2023-02-19T16:30:58.421Z,13.30
2023-02-19T16:33:38.880Z,13.30
2023-02-19T16:36:46.061Z,13.30
2023-02-19T16:39:19.436Z,13.20
2023-02-19T16:41:47.197Z,13.20
2023-02-19T16:44:21.020Z,13.20
2023-02-19T16:47:14.103Z,13.20
2023-02-19T16:49:44.197Z,13.10
2023-02-19T16:52:17.168Z,13.10
2023-02-19T16:54:47.258Z,13.00
2023-02-19T16:57:15.315Z,13.00
2023-02-19T16:59:45.526Z,13.00
2023-02-19T17:02:20.573Z,13.00
2023-02-19T17:04:50.966Z,12.90
2023-02-19T17:07:30.564Z,12.90
2023-02-19T17:09:58.786Z,12.80
2023-02-19T17:12:26.854Z,12.70
2023-02-19T17:14:54.803Z,12.70
2023-02-19T17:17:22.559Z,12.60
2023-02-19T17:19:50.787Z,12.50
2023-02-19T17:22:21.050Z,12.50
2023-02-19T17:24:49.235Z,12.40
2023-02-19T17:27:17.005Z,12.40
2023-02-19T17:29:48.308Z,12.30
2023-02-19T17:32:16.158Z,12.30
2023-02-19T17:34:44.384Z,12.20
2023-02-19T17:37:13.528Z,12.20
2023-02-19T17:39:41.827Z,12.10
2023-02-19T17:42:09.704Z,12.10
2023-02-19T17:44:37.711Z,12.00
2023-02-19T17:47:08.580Z,12.00
2023-02-19T17:49:36.770Z,11.90
2023-02-19T17:52:04.687Z,11.90
2023-02-19T17:54:35.083Z,11.80
2023-02-19T17:57:02.918Z,11.70
2023-02-19T17:59:31.107Z,11.70
2023-02-19T18:01:59.014Z,11.70
2023-02-19T18:04:29.306Z,11.70
2023-02-19T18:06:57.147Z,11.60
2023-02-19T18:09:25.535Z,11.60
2023-02-19T18:11:53.327Z,11.60
2023-02-19T18:14:21.465Z,11.50
2023-02-19T18:16:50.593Z,11.50
2023-02-19T18:19:19.330Z,11.40
2023-02-19T18:21:47.101Z,11.40
2023-02-19T18:24:15.286Z,11.30
2023-02-19T18:26:43.703Z,11.30
2023-02-19T18:29:12.694Z,11.20
2023-02-19T18:31:40.624Z,11.10
2023-02-19T18:34:18.993Z,11.10
2023-02-19T18:36:48.693Z,11.00
2023-02-19T18:39:16.970Z,11.00
2023-02-19T18:41:49.391Z,10.90
2023-02-19T18:44:22.435Z,10.90
2023-02-19T18:46:50.692Z,10.90
2023-02-19T18:49:18.866Z,10.80
2023-02-19T18:51:48.237Z,10.80
2023-02-19T18:54:16.680Z,10.70
2023-02-19T18:56:45.927Z,10.70
2023-02-19T18:59:14.364Z,10.70
2023-02-19T19:01:47.160Z,10.70
2023-02-19T19:04:15.244Z,10.60
2023-02-19T19:06:43.277Z,10.60
2023-02-19T19:09:11.468Z,10.60
2023-02-19T19:11:39.264Z,10.50
2023-02-19T19:14:08.345Z,10.50
2023-02-19T19:16:36.100Z,10.50
2023-02-19T19:19:04.177Z,10.50
2023-02-19T19:21:32.194Z,10.50
2023-02-19T19:24:00.435Z,10.40
2023-02-19T19:26:28.228Z,10.40
2023-02-19T19:28:56.599Z,10.40
2023-02-19T19:31:25.153Z,10.40
2023-02-19T19:33:53.315Z,10.40
2023-02-19T19:36:22.847Z,10.40
2023-02-19T19:38:50.798Z,10.30
2023-02-19T19:41:22.249Z,10.30
2023-02-19T19:43:50.660Z,10.30
2023-02-19T19:46:20.014Z,10.30
2023-02-19T19:48:50.172Z,10.20
2023-02-19T19:51:18.014Z,10.20
2023-02-19T19:53:50.095Z,10.10
2023-02-19T19:56:18.478Z,10.10
2023-02-19T19:58:48.510Z,10.10
2023-02-19T20:01:20.965Z,10.10
2023-02-19T20:03:51.282Z,10.00
2023-02-19T20:06:30.999Z,10.00
2023-02-19T20:09:00.103Z,10.00
2023-02-19T20:11:28.020Z,10.00
2023-02-19T20:13:56.086Z,9.90
2023-02-19T20:16:28.338Z,9.90
2023-02-19T20:18:59.049Z,9.80
2023-02-19T20:21:27.144Z,9.80
2023-02-19T20:23:55.143Z,9.80
2023-02-19T20:26:27.392Z,9.70
2023-02-19T20:28:56.102Z,9.70
2023-02-19T20:31:24.961Z,9.70
2023-02-19T20:33:53.113Z,9.70
2023-02-19T20:36:21.204Z,9.60
2023-02-19T20:38:50.044Z,9.60
2023-02-19T20:41:17.735Z,9.50
2023-02-19T20:43:45.871Z,9.50
2023-02-19T20:46:14.085Z,9.50
2023-02-19T20:48:42.325Z,9.50
2023-02-19T20:51:10.203Z,9.40
2023-02-19T20:53:39.389Z,9.40
2023-02-19T20:56:07.725Z,9.40
2023-02-19T20:58:35.762Z,9.30
2023-02-19T21:01:03.592Z,9.30
2023-02-19T21:03:31.677Z,9.30
2023-02-19T21:05:59.630Z,9.30
2023-02-19T21:08:27.645Z,9.30
2023-02-19T21:10:56.323Z,9.20
2023-02-19T21:13:24.407Z,9.20
2023-02-19T21:15:52.227Z,9.20
2023-02-19T21:18:23.616Z,9.10
2023-02-19T21:20:56.164Z,9.10
2023-02-19T21:23:24.651Z,9.10
2023-02-19T21:25:54.567Z,9.10
2023-02-19T21:28:23.992Z,9.10
2023-02-19T21:30:51.764Z,9.10
2023-02-19T21:33:22.106Z,9.10
2023-02-19T21:35:49.848Z,9.10
2023-02-19T21:38:17.899Z,9.10
2023-02-19T21:40:45.768Z,9.00
2023-02-19T21:43:13.879Z,9.00
2023-02-19T21:45:42.837Z,9.00
2023-02-19T21:48:11.180Z,9.00
2023-02-19T21:50:38.926Z,9.00
2023-02-19T21:53:06.985Z,8.90
2023-02-19T21:55:34.840Z,8.90
2023-02-19T21:58:02.987Z,8.90
2023-02-19T22:00:31.387Z,8.90
2023-02-19T22:02:59.482Z,8.90
2023-02-19T22:05:30.410Z,8.90
2023-02-19T22:08:01.074Z,8.80
2023-02-19T22:10:30.027Z,8.80
2023-02-19T22:12:58.097Z,8.80
2023-02-19T22:15:25.959Z,8.80
2023-02-19T22:17:54.006Z,8.80
2023-02-19T22:20:21.856Z,8.80
2023-02-19T22:22:50.028Z,8.80
2023-02-19T22:25:17.836Z,8.80
2023-02-19T22:27:48.960Z,8.80
2023-02-19T22:30:17.026Z,8.70
2023-02-19T22:32:45.225Z,8.70
2023-02-19T22:35:15.408Z,8.70
2023-02-19T22:37:43.739Z,8.70
2023-02-19T22:40:12.096Z,8.60
2023-02-19T22:42:40.168Z,8.60
2023-02-19T22:45:10.516Z,8.60
2023-02-19T22:47:40.069Z,8.60
2023-02-19T22:50:08.195Z,8.50
2023-02-19T22:52:36.169Z,8.50
2023-02-19T22:55:04.458Z,8.50
2023-02-19T22:57:32.590Z,8.40
2023-02-19T23:00:06.395Z,8.40
2023-02-19T23:02:34.382Z,8.40
2023-02-19T23:05:02.192Z,8.40
2023-02-19T23:07:30.166Z,8.40
2023-02-19T23:09:57.901Z,8.30
2023-02-19T23:12:25.875Z,8.30
2023-02-19T23:14:55.847Z,8.20
2023-02-19T23:17:23.820Z,8.20
2023-02-19T23:19:51.569Z,8.20
2023-02-19T23:22:19.693Z,8.20
2023-02-19T23:24:47.473Z,8.10
2023-02-19T23:27:15.847Z,8.10
2023-02-19T23:29:43.536Z,8.10
2023-02-19T23:32:14.673Z,8.10
2023-02-19T23:34:42.372Z,8.10
2023-02-19T23:37:10.354Z,8.00
2023-02-19T23:39:40.798Z,8.00
2023-02-19T23:42:14.870Z,8.00
2023-02-19T23:44:47.674Z,8.00
2023-02-19T23:47:15.692Z,7.90
2023-02-19T23:49:43.431Z,7.90
2023-02-19T23:52:11.559Z,7.90
2023-02-19T23:54:39.676Z,7.90
2023-02-19T23:57:08.064Z,7.80
2023-02-19T23:59:38.121Z,7.80
